Ana Sayfa
METAR-TAF:

METAR-TAF

Havaalanları :

Portela Havalimanı

Lizbon, Portekiz

Enlem: 38-46N, Boylam: 009-08W, yükseklik: 114 m

Güncel hava durumu gözlemi

Rapor saat 22:00 UTC de 35 dakika önce yapıldı.
Rüzgar kuzey/kuzeybatıdan 10 kt
Sıcaklık 12°C
Nem 88%
Basınç 1021 hPa
Görüş mesafesi 10 km veya daha fazla
1500 m altında bulut yok ve kümülonimbus yok

METAR: LPPT 122200Z 33010KT CAVOK 12/10 Q1021

Saat: 22:35 (22:35 UTC)

Tahmin

Rapor saat 17:00 UTC de 5 saat ve 35 dakika önce yapıldı.
Ayın 12'si saat 18 UTC'den ayın 13'si saat 24 UTC'ye kadar geçerli Tahmin
Rüzgar kuzey/kuzeybatıdan 10 kt
Görüş mesafesi 10 km veya daha fazla
1500 m altında bulut yok ve kümülonimbus yok
Dönüşüyor
ayın 13'si saat 09 UTC'den ayın 13'si saat 11 UTC'ye kadar
Rüzgar kuzey/kuzeydoğudan 8 kt

TAF: LPPT 121700Z 1218/1324 34010KT CAVOK BECMG 1309/1311 03008KT

4.000'den fazla havaalanı için hava durumu gözlemleri ve tahminleri (METAR ve TAF raporları).

Kullanılabilir istasyonlar harita üzerinde sarı ve kırmızı noktalarla gösterilir.

İstasyonun adını görmek için fareyi noktanın üzerinde gezdirin.

Sonrasında hava gözlem ve tahminlerini görmek için tıklayın.

Haritayı değiştirmek için: yaklaştırmak için siyah artı işaretli yeşil düğmeye ve uzaklaştırmak için de eksi işaretli düğmeye hızla tıklayın; bitişik haritalar için yeşil okları kullanın.


METAR-TAF: